Time;durP1;ratioP1;P1;durP2;ratioP2;P2;SDS_P1;SDS_P2;PMS_P1;PMS_P2;Temp;Humidity;BMP_temperature;BMP_pressure;BME280_temperature;BME280_humidity;BME280_pressure;Samples;Min_cycle;Max_cycle;Signal;HPM_P1;HPM_P2
2022/11/19 09:49:54;;;;;;;3.87;2.30;;;5.90;99.90;;;;;;4815460;29;20228;-68
2022/11/19 09:52:25;;;;;;;4.33;2.50;;;5.90;99.90;;;;;;4826458;29;20219;-67
2022/11/19 09:54:54;;;;;;;4.13;2.80;;;5.90;99.90;;;;;;4826876;29;20240;-73
2022/11/19 09:57:27;;;;;;;5.13;2.73;;;5.70;99.90;;;;;;4827867;29;20225;-68
2022/11/19 09:59:57;;;;;;;6.47;3.17;;;5.70;99.90;;;;;;4827416;29;20603;-72
2022/11/19 10:02:24;;;;;;;5.67;2.67;;;5.70;99.90;;;;;;4823480;29;20313;-74
2022/11/19 10:04:53;;;;;;;8.33;3.43;;;5.70;99.90;;;;;;4824526;29;20237;-67
2022/11/19 10:07:30;;;;;;;7.33;2.37;;;5.80;99.90;;;;;;4842287;29;20242;-68
2022/11/19 10:10:07;;;;;;;6.33;2.60;;;5.70;99.90;;;;;;4844047;29;20224;-70
2022/11/19 10:12:55;;;;;;;3.83;2.60;;;5.70;99.90;;;;;;4838246;29;20206;-67
2022/11/19 10:15:26;;;;;;;4.97;3.00;;;5.60;99.90;;;;;;4824599;29;20241;-66
2022/11/19 10:18:05;;;;;;;5.13;2.90;;;5.60;99.90;;;;;;4824740;29;20744;-67
2022/11/19 10:20:52;;;;;;;8.07;3.77;;;5.70;99.90;;;;;;4824584;29;20220;-67
2022/11/19 10:23:24;;;;;;;6.27;3.53;;;5.80;99.90;;;;;;4825395;29;20220;-82
2022/11/19 10:25:57;;;;;;;8.13;3.93;;;5.90;99.90;;;;;;4824837;29;20241;-73
2022/11/19 10:28:27;;;;;;;7.13;3.87;;;5.80;99.90;;;;;;4824923;29;20221;-68
2022/11/19 10:31:04;;;;;;;8.77;4.63;;;5.70;99.90;;;;;;4824674;29;20221;-68
2022/11/19 10:33:34;;;;;;;9.60;4.60;;;5.60;99.90;;;;;;4824537;29;20217;-67
2022/11/19 10:36:06;;;;;;;7.07;3.73;;;5.60;99.90;;;;;;4824605;29;20234;-67
2022/11/19 10:38:37;;;;;;;7.77;4.30;;;5.70;99.90;;;;;;4824595;29;20218;-73
2022/11/19 10:41:12;;;;;;;6.00;3.03;;;5.60;99.90;;;;;;4824237;29;20687;-69
2022/11/19 10:43:46;;;;;;;8.00;4.60;;;5.70;99.90;;;;;;4828590;29;20217;-68
2022/11/19 10:46:17;;;;;;;8.00;4.60;;;5.70;99.90;;;;;;4824769;29;20247;-68
2022/11/19 10:48:46;;;;;;;8.40;4.13;;;5.60;99.90;;;;;;4824153;29;20228;-69
2022/11/19 10:51:21;;;;;;;7.33;3.73;;;5.40;99.90;;;;;;4824240;29;20222;-70
2022/11/19 10:53:48;;;;;;;9.10;4.37;;;5.60;99.90;;;;;;4824191;29;20217;-69
2022/11/19 10:56:19;;;;;;;7.60;4.30;;;5.50;99.90;;;;;;4824032;29;20248;-69
2022/11/19 10:58:52;;;;;;;8.57;4.43;;;5.50;99.90;;;;;;4824056;29;20213;-70
2022/11/19 11:01:28;;;;;;;8.43;4.20;;;5.60;99.90;;;;;;4824395;29;20210;-69
2022/11/19 11:04:05;;;;;;;8.43;4.17;;;5.70;99.90;;;;;;4824609;29;20224;-70
2022/11/19 11:06:50;;;;;;;7.40;4.83;;;5.80;99.90;;;;;;4823792;29;20245;-79
2022/11/19 11:09:29;;;;;;;7.60;3.97;;;5.80;99.90;;;;;;4823665;29;20217;-71
2022/11/19 11:14:52;;;;;;;8.87;4.87;;;5.90;99.90;;;;;;4823586;29;20616;-73
2022/11/19 11:17:21;;;;;;;9.73;4.60;;;5.90;99.90;;;;;;4824166;29;20220;-70
2022/11/19 11:19:57;;;;;;;8.70;4.83;;;6.00;99.90;;;;;;4823660;29;20216;-70
2022/11/19 11:22:26;;;;;;;8.63;4.53;;;6.10;99.90;;;;;;4823650;29;20205;-70
2022/11/19 11:24:53;;;;;;;10.80;5.50;;;6.00;99.90;;;;;;4824278;29;20234;-69
2022/11/19 11:27:21;;;;;;;8.77;5.20;;;5.90;99.90;;;;;;4824520;29;20245;-72
2022/11/19 11:29:48;;;;;;;9.43;5.07;;;6.00;99.90;;;;;;4824636;29;20216;-69
2022/11/19 11:32:27;;;;;;;9.13;4.57;;;5.90;99.90;;;;;;4824131;29;20221;-72
2022/11/19 11:34:54;;;;;;;10.57;4.97;;;5.80;99.90;;;;;;4824408;29;20295;-68
2022/11/19 11:37:21;;;;;;;7.37;4.80;;;5.80;99.90;;;;;;4824487;29;20210;-74
2022/11/19 11:39:54;;;;;;;10.27;5.20;;;5.70;99.90;;;;;;4824978;29;20217;-75
2022/11/19 11:42:22;;;;;;;8.80;4.80;;;5.90;99.90;;;;;;4825049;29;20220;-71
2022/11/19 11:44:51;;;;;;;9.50;4.47;;;5.70;99.90;;;;;;4824782;29;20593;-73
2022/11/19 11:47:20;;;;;;;9.67;5.50;;;5.60;99.90;;;;;;4824775;29;20243;-75
2022/11/19 11:49:55;;;;;;;9.70;4.73;;;5.60;99.90;;;;;;4824518;29;20217;-69
2022/11/19 11:52:28;;;;;;;8.77;5.10;;;5.50;99.90;;;;;;4824293;29;20217;-72
2022/11/19 11:55:01;;;;;;;10.63;4.83;;;5.60;99.90;;;;;;4824536;29;20236;-69
2022/11/19 11:57:29;;;;;;;12.80;5.43;;;5.60;99.90;;;;;;4824630;29;20581;-69
2022/11/19 11:59:57;;;;;;;12.43;5.07;;;5.50;99.90;;;;;;4824729;29;20584;-74
2022/11/19 12:02:28;;;;;;;10.17;5.23;;;5.40;99.90;;;;;;4824652;29;20300;-76
2022/11/19 12:04:56;;;;;;;10.87;5.03;;;5.30;99.90;;;;;;4824124;29;20238;-68
2022/11/19 12:07:52;;;;;;;15.17;6.27;;;5.40;99.90;;;;;;4824503;29;20716;-69
2022/11/19 12:10:28;;;;;;;9.87;5.70;;;5.50;99.90;;;;;;4824371;29;20217;-76
2022/11/19 12:13:12;;;;;;;9.93;5.43;;;5.40;99.90;;;;;;4824292;29;20209;-69
2022/11/19 12:15:51;;;;;;;13.57;5.90;;;5.40;99.90;;;;;;4824531;29;20233;-68
2022/11/19 12:18:26;;;;;;;9.83;5.37;;;5.30;99.90;;;;;;4824307;29;20308;-74
2022/11/19 12:21:01;;;;;;;8.77;5.57;;;5.40;99.90;;;;;;4824062;29;20212;-70
2022/11/19 12:23:57;;;;;;;11.93;5.33;;;5.30;99.90;;;;;;4824200;29;20642;-68
2022/11/19 12:26:34;;;;;;;8.73;4.30;;;5.30;99.90;;;;;;4824053;29;20667;-70
2022/11/19 12:29:14;;;;;;;10.50;4.93;;;5.20;99.90;;;;;;4824376;29;20221;-68
2022/11/19 12:32:06;;;;;;;9.97;5.50;;;5.20;99.90;;;;;;4824085;29;20679;-68
2022/11/19 12:35:02;;;;;;;14.47;5.87;;;5.20;99.90;;;;;;4823576;29;20240;-74
2022/11/19 12:37:51;;;;;;;10.57;4.83;;;5.20;99.90;;;;;;4823829;29;20249;-73
2022/11/19 12:40:30;;;;;;;9.10;4.90;;;5.20;99.90;;;;;;4821662;29;20209;-68
2022/11/19 12:43:08;;;;;;;10.73;5.00;;;5.30;99.90;;;;;;4824535;29;20225;-69
2022/11/19 12:45:42;;;;;;;12.70;5.33;;;5.30;99.90;;;;;;4823694;29;20278;-68
2022/11/19 12:48:29;;;;;;;10.07;5.73;;;5.30;99.90;;;;;;4823983;29;20293;-74
2022/11/19 12:51:03;;;;;;;10.63;5.40;;;5.20;99.90;;;;;;4823899;29;20666;-71
2022/11/19 12:53:43;;;;;;;12.70;6.60;;;5.10;99.90;;;;;;4824162;29;20217;-68
2022/11/19 12:56:23;;;;;;;14.43;6.90;;;5.30;99.90;;;;;;4823955;29;20241;-68
2022/11/19 12:59:00;;;;;;;13.60;6.07;;;5.30;99.90;;;;;;4823769;29;20681;-68
2022/11/19 13:01:32;;;;;;;11.77;6.17;;;5.30;99.90;;;;;;4823945;29;20220;-68
2022/11/19 13:04:04;;;;;;;12.47;5.10;;;5.30;99.90;;;;;;4823850;29;20210;-70
2022/11/19 13:06:40;;;;;;;13.77;6.43;;;5.30;99.90;;;;;;4823859;29;20278;-68
2022/11/19 13:09:14;;;;;;;13.70;6.23;;;5.20;99.90;;;;;;4823616;29;20223;-71
2022/11/19 13:11:45;;;;;;;13.73;6.60;;;5.20;99.90;;;;;;4823944;29;20684;-69
2022/11/19 13:14:22;;;;;;;14.90;7.07;;;5.00;99.90;;;;;;4823523;29;20214;-68
2022/11/19 13:16:51;;;;;;;15.60;7.10;;;5.10;99.90;;;;;;4823861;29;20246;-68
2022/11/19 13:19:24;;;;;;;51.93;8.67;;;5.10;99.90;;;;;;4823606;29;20218;-69
2022/11/19 13:21:56;;;;;;;23.60;7.70;;;5.20;99.90;;;;;;4823786;29;20680;-69
2022/11/19 13:24:31;;;;;;;11.70;5.53;;;5.40;99.90;;;;;;4823849;29;20240;-69
2022/11/19 13:27:02;;;;;;;12.30;6.70;;;5.20;99.90;;;;;;4823513;29;20255;-72
2022/11/19 13:29:37;;;;;;;18.03;7.67;;;4.90;99.90;;;;;;4823409;29;20214;-68
2022/11/19 13:32:13;;;;;;;18.93;7.90;;;4.80;99.90;;;;;;4823247;29;20213;-68
2022/11/19 13:34:48;;;;;;;16.27;7.23;;;4.70;99.90;;;;;;4822066;29;20232;-72
2022/11/19 13:37:20;;;;;;;17.90;6.93;;;4.60;99.90;;;;;;4820326;29;20214;-69
2022/11/19 13:39:50;;;;;;;14.43;6.83;;;4.70;99.90;;;;;;4822371;29;20220;-73
2022/11/19 13:45:05;;;;;;;51.17;10.93;;;4.60;99.90;;;;;;4823233;29;20326;-68
2022/11/19 13:47:40;;;;;;;86.93;12.87;;;4.70;99.90;;;;;;4825231;29;20471;-71
2022/11/19 13:50:13;;;;;;;18.17;7.53;;;4.80;99.90;;;;;;4826058;29;20213;-73
2022/11/19 13:52:46;;;;;;;31.07;8.43;;;4.70;99.90;;;;;;4825112;29;20235;-69
2022/11/19 13:55:29;;;;;;;195.80;22.10;;;4.90;99.90;;;;;;4824593;29;20696;-72
2022/11/19 13:58:06;;;;;;;164.73;19.53;;;4.90;99.90;;;;;;4824848;29;20297;-70
2022/11/19 14:00:36;;;;;;;45.43;10.97;;;4.80;99.90;;;;;;4824484;29;20696;-68
2022/11/19 14:03:25;;;;;;;91.13;14.50;;;4.80;99.90;;;;;;4824851;29;20236;-73
2022/11/19 14:06:17;;;;;;;126.27;17.67;;;4.80;99.90;;;;;;4823517;29;20665;-74
2022/11/19 14:09:00;;;;;;;31.63;9.00;;;4.90;99.90;;;;;;4822591;29;20679;-73
2022/11/19 14:11:55;;;;;;;30.57;6.97;;;4.90;99.90;;;;;;4823055;29;20296;-69
2022/11/19 14:27:09;;;;;;;12.50;6.30;;;4.70;99.90;;;;;;4825446;29;20266;-71
2022/11/19 14:29:54;;;;;;;12.87;6.47;;;4.70;99.90;;;;;;4820803;29;20218;-69
2022/11/19 14:32:31;;;;;;;13.53;6.37;;;4.80;99.90;;;;;;4826030;29;20223;-73
2022/11/19 14:35:41;;;;;;;17.73;7.73;;;4.80;99.90;;;;;;4825458;29;20233;-72
2022/11/19 14:38:34;;;;;;;13.97;7.20;;;4.80;99.90;;;;;;4825800;29;20214;-69
2022/11/19 14:41:07;;;;;;;14.53;6.53;;;4.60;99.90;;;;;;4825538;29;20670;-68
2022/11/19 14:44:08;;;;;;;17.67;8.00;;;4.70;99.90;;;;;;4825777;29;20304;-72
2022/11/19 14:46:40;;;;;;;24.87;8.53;;;4.80;99.90;;;;;;4825655;29;20348;-70
2022/11/19 14:49:22;;;;;;;41.00;9.80;;;5.00;99.90;;;;;;4825492;29;20225;-68
2022/11/19 14:51:54;;;;;;;23.20;10.00;;;5.10;99.90;;;;;;4825758;29;20219;-68
2022/11/19 14:54:32;;;;;;;20.27;9.00;;;5.20;99.90;;;;;;4825532;29;20229;-74
2022/11/19 14:57:03;;;;;;;18.67;8.80;;;5.40;99.90;;;;;;4824777;29;20241;-71
2022/11/19 14:59:34;;;;;;;21.53;9.70;;;5.10;99.90;;;;;;4824850;29;20213;-70
2022/11/19 15:02:04;;;;;;;17.70;8.80;;;4.90;99.90;;;;;;4825513;29;20296;-72
2022/11/19 15:04:36;;;;;;;28.77;11.77;;;5.10;99.90;;;;;;4825214;29;20233;-69
2022/11/19 15:07:10;;;;;;;23.23;11.30;;;5.00;99.90;;;;;;4825369;29;20252;-69
2022/11/19 15:10:28;;;;;;;26.67;10.87;;;5.10;99.90;;;;;;4825552;29;20272;-72
2022/11/19 15:13:28;;;;;;;29.47;12.03;;;5.20;99.90;;;;;;4805201;29;20210;-71
2022/11/19 15:16:01;;;;;;;30.20;12.23;;;5.10;99.90;;;;;;4825151;29;20237;-72
2022/11/19 15:19:09;;;;;;;31.50;12.70;;;4.90;99.90;;;;;;4825128;29;20221;-72
2022/11/19 15:22:07;;;;;;;33.57;13.20;;;4.70;99.90;;;;;;4804582;29;20674;-74
2022/11/19 15:24:56;;;;;;;24.80;11.70;;;4.70;99.90;;;;;;4804596;29;20569;-72
2022/11/19 15:27:41;;;;;;;29.67;12.13;;;4.80;99.90;;;;;;4820259;29;20700;-70
2022/11/19 15:30:16;;;;;;;33.23;11.87;;;4.70;99.90;;;;;;4824981;29;20213;-72
2022/11/19 15:33:02;;;;;;;25.97;11.30;;;4.70;99.90;;;;;;4825179;29;20219;-71
2022/11/19 15:36:03;;;;;;;26.50;11.87;;;4.80;99.90;;;;;;4823940;29;20244;-69
2022/11/19 15:38:35;;;;;;;32.57;13.17;;;4.70;99.90;;;;;;4824343;29;20220;-73
2022/11/19 15:41:04;;;;;;;29.03;11.87;;;4.60;99.90;;;;;;4823938;29;20657;-71
2022/11/19 15:43:36;;;;;;;28.60;12.83;;;4.60;99.90;;;;;;4824446;29;20220;-73
2022/11/19 15:46:08;;;;;;;24.67;11.13;;;4.60;99.90;;;;;;4825389;29;20593;-71
2022/11/19 15:48:40;;;;;;;27.50;10.83;;;4.60;99.90;;;;;;4824480;29;20251;-74
2022/11/19 15:51:11;;;;;;;27.47;12.20;;;4.60;99.90;;;;;;4824952;29;20214;-70
2022/11/19 15:53:56;;;;;;;37.07;14.63;;;4.70;99.90;;;;;;4824681;29;20209;-73
2022/11/19 15:56:23;;;;;;;36.47;13.77;;;4.60;99.90;;;;;;4824839;29;20233;-70
2022/11/19 15:58:51;;;;;;;37.10;14.87;;;4.50;99.90;;;;;;4824860;29;20210;-73
2022/11/19 16:01:20;;;;;;;37.73;15.83;;;4.40;99.90;;;;;;4824564;29;20572;-76
2022/11/19 16:03:48;;;;;;;60.70;22.07;;;4.50;99.90;;;;;;4824491;29;20217;-77
2022/11/19 16:06:20;;;;;;;33.90;14.20;;;4.70;99.90;;;;;;4824599;29;20685;-74
2022/11/19 16:08:52;;;;;;;34.10;12.63;;;4.70;99.90;;;;;;4823937;29;20242;-75
2022/11/19 16:20:06;;;;;;;33.57;13.30;;;4.50;99.90;;;;;;4824433;29;20221;-75
2022/11/19 16:22:36;;;;;;;53.60;24.50;;;4.40;99.90;;;;;;4824460;29;20692;-75
2022/11/19 16:25:11;;;;;;;34.83;14.37;;;4.40;99.90;;;;;;4824280;29;20229;-76
2022/11/19 16:27:40;;;;;;;33.20;13.70;;;4.30;99.90;;;;;;4824444;29;20255;-77
2022/11/19 16:30:17;;;;;;;34.40;13.23;;;4.50;99.90;;;;;;4824593;29;20586;-77
2022/11/19 16:32:44;;;;;;;28.27;11.60;;;4.40;99.90;;;;;;4824536;29;20247;-73
2022/11/19 16:35:19;;;;;;;29.30;11.67;;;4.30;99.90;;;;;;4824102;29;20241;-76
2022/11/19 16:37:46;;;;;;;28.40;13.43;;;4.30;99.90;;;;;;4824184;29;20669;-74
2022/11/19 16:40:16;;;;;;;33.57;12.80;;;4.30;99.90;;;;;;4824051;29;20218;-76
2022/11/19 16:42:48;;;;;;;35.73;14.77;;;4.30;99.90;;;;;;4824117;29;20673;-76
2022/11/19 16:45:18;;;;;;;36.53;13.77;;;4.10;99.90;;;;;;4823955;29;20240;-74
2022/11/19 16:47:52;;;;;;;42.00;18.23;;;4.20;99.90;;;;;;4823160;29;20731;-74
2022/11/19 16:50:27;;;;;;;34.57;13.33;;;4.30;99.90;;;;;;4823288;29;20212;-76
2022/11/19 16:52:55;;;;;;;33.40;14.07;;;4.40;99.90;;;;;;4823276;29;20221;-76
2022/11/19 16:55:50;;;;;;;48.67;19.10;;;4.30;99.90;;;;;;4823607;29;20602;-72
2022/11/19 16:58:25;;;;;;;40.10;16.27;;;4.20;99.90;;;;;;4824078;29;20213;-75
2022/11/19 17:00:58;;;;;;;33.50;13.73;;;4.20;99.90;;;;;;4824326;29;20220;-74
2022/11/19 17:03:38;;;;;;;38.97;14.90;;;4.60;99.90;;;;;;4824150;29;20229;-71
2022/11/19 17:06:07;;;;;;;33.87;14.17;;;4.70;99.90;;;;;;4823903;29;20644;-70
2022/11/19 17:08:36;;;;;;;38.03;15.53;;;4.70;99.90;;;;;;4824266;29;20280;-68
2022/11/19 17:14:19;;;;;;;44.37;16.60;;;4.80;99.90;;;;;;4823874;29;20230;-68
2022/11/19 17:16:48;;;;;;;48.37;18.10;;;4.70;99.90;;;;;;4824243;29;20577;-70
2022/11/19 17:19:25;;;;;;;44.93;15.77;;;4.40;99.90;;;;;;4823757;29;20222;-70
2022/11/19 17:21:57;;;;;;;56.47;16.97;;;4.30;99.90;;;;;;4826512;29;20213;-71
2022/11/19 17:24:24;;;;;;;54.10;18.63;;;4.30;99.90;;;;;;4827124;29;20244;-70
2022/11/19 17:26:52;;;;;;;40.90;16.87;;;4.20;99.90;;;;;;4827067;29;20214;-68
2022/11/19 17:29:23;;;;;;;45.20;14.37;;;4.10;99.90;;;;;;4826946;29;20260;-70
2022/11/19 17:31:52;;;;;;;40.40;16.60;;;4.10;99.90;;;;;;4826992;29;20218;-72
2022/11/19 17:34:23;;;;;;;43.97;18.17;;;4.00;99.90;;;;;;4826879;29;20240;-68
2022/11/19 17:36:50;;;;;;;45.23;17.00;;;4.00;99.90;;;;;;4826890;29;20220;-75
2022/11/19 17:39:17;;;;;;;76.90;25.77;;;4.20;99.90;;;;;;4826833;29;20229;-73
2022/11/19 17:44:33;;;;;;;43.73;15.23;;;4.40;99.90;;;;;;4826605;29;20325;-71
2022/11/19 17:47:00;;;;;;;43.40;16.50;;;4.40;99.90;;;;;;4826559;29;20229;-73
2022/11/19 17:49:27;;;;;;;42.03;16.63;;;4.50;99.90;;;;;;4826387;29;20237;-74
2022/11/19 17:51:55;;;;;;;42.10;16.30;;;4.40;99.90;;;;;;4826679;29;20224;-74
2022/11/19 17:54:22;;;;;;;41.63;15.43;;;4.30;99.90;;;;;;4826312;29;20229;-73
2022/11/19 17:56:49;;;;;;;39.80;15.83;;;4.40;99.90;;;;;;4826555;29;20220;-72
2022/11/19 17:59:16;;;;;;;46.90;16.13;;;4.30;99.90;;;;;;4826325;29;20220;-77
2022/11/19 18:01:44;;;;;;;45.40;16.77;;;4.20;99.90;;;;;;4826604;29;20270;-77
2022/11/19 18:04:12;;;;;;;41.37;14.87;;;4.10;99.90;;;;;;4826701;29;20227;-71
2022/11/19 18:06:39;;;;;;;52.67;18.17;;;4.10;99.90;;;;;;4826552;29;20217;-72
2022/11/19 18:09:06;;;;;;;46.80;15.93;;;4.10;99.90;;;;;;4826421;29;20277;-70
2022/11/19 18:11:34;;;;;;;65.17;26.27;;;4.10;99.90;;;;;;4826435;29;20219;-71
2022/11/19 18:14:02;;;;;;;44.83;16.37;;;4.30;99.90;;;;;;4827071;29;20213;-72
2022/11/19 18:16:33;;;;;;;46.50;16.43;;;4.30;99.90;;;;;;4826254;29;20226;-72
2022/11/19 18:19:01;;;;;;;45.60;16.80;;;4.20;99.90;;;;;;4826071;29;20221;-72
2022/11/19 18:21:28;;;;;;;42.83;15.30;;;4.10;99.90;;;;;;4825906;29;20224;-70
2022/11/19 18:23:55;;;;;;;41.73;16.30;;;4.20;99.90;;;;;;4825891;29;20223;-69
2022/11/19 18:26:23;;;;;;;44.57;16.87;;;4.20;99.90;;;;;;4826108;29;20627;-72
2022/11/19 18:28:50;;;;;;;44.53;15.20;;;4.20;99.90;;;;;;4826073;29;20243;-69
2022/11/19 18:31:19;;;;;;;49.30;16.80;;;4.30;99.90;;;;;;4826307;29;20213;-70
2022/11/19 18:33:46;;;;;;;40.03;15.80;;;4.30;99.90;;;;;;4825189;29;20213;-69
2022/11/19 18:36:15;;;;;;;52.37;17.27;;;4.20;99.90;;;;;;4825836;29;20237;-68
2022/11/19 18:38:42;;;;;;;42.40;16.33;;;4.20;99.90;;;;;;4825815;29;20304;-68
2022/11/19 18:41:10;;;;;;;55.67;18.47;;;4.50;99.90;;;;;;4825842;29;20569;-68
2022/11/19 18:46:21;;;;;;;44.63;16.27;;;4.70;99.90;;;;;;4825846;29;20301;-68
2022/11/19 18:48:48;;;;;;;46.33;19.47;;;4.80;99.90;;;;;;4825737;29;20241;-69
2022/11/19 18:51:16;;;;;;;39.10;16.43;;;4.70;99.90;;;;;;4825826;29;20218;-68
2022/11/19 18:53:43;;;;;;;41.23;16.47;;;4.70;99.90;;;;;;4825765;29;20217;-68
2022/11/19 18:56:14;;;;;;;50.57;15.83;;;4.80;99.90;;;;;;4825316;29;20244;-69
2022/11/19 18:58:41;;;;;;;46.77;16.63;;;4.80;99.90;;;;;;4825549;29;20214;-69
2022/11/19 19:01:08;;;;;;;46.50;16.60;;;5.00;99.90;;;;;;4825325;29;20576;-70
2022/11/19 19:03:35;;;;;;;49.33;18.03;;;5.10;99.90;;;;;;4825155;29;20217;-68
2022/11/19 19:06:03;;;;;;;44.40;15.50;;;5.10;99.90;;;;;;4825724;29;20329;-69
2022/11/19 19:08:31;;;;;;;45.87;14.93;;;5.10;99.90;;;;;;4825075;29;20248;-68
2022/11/19 19:13:39;;;;;;;39.70;16.07;;;5.30;99.90;;;;;;4825060;29;20212;-68
2022/11/19 19:16:06;;;;;;;48.17;13.93;;;5.20;99.90;;;;;;4825118;29;20290;-69
2022/11/19 19:18:33;;;;;;;42.70;15.70;;;5.00;99.90;;;;;;4825038;29;20221;-71
2022/11/19 19:21:00;;;;;;;41.03;15.87;;;5.00;99.90;;;;;;4825077;29;20225;-68
2022/11/19 19:23:27;;;;;;;119.43;38.07;;;5.10;99.90;;;;;;4825436;29;20300;-68
2022/11/19 19:25:57;;;;;;;49.73;16.60;;;5.00;99.90;;;;;;4825058;29;20668;-68
2022/11/19 19:28:24;;;;;;;43.83;16.53;;;4.80;99.90;;;;;;4824936;29;20237;-68
2022/11/19 19:30:57;;;;;;;49.53;17.33;;;4.60;99.90;;;;;;4825054;29;20219;-68
2022/11/19 19:33:24;;;;;;;46.13;15.27;;;4.50;99.90;;;;;;4825341;29;20556;-68
2022/11/19 19:35:51;;;;;;;54.93;15.90;;;4.60;99.90;;;;;;4824818;29;20233;-69
2022/11/19 19:38:18;;;;;;;48.57;16.20;;;4.80;99.90;;;;;;4824913;29;20213;-68
2022/11/19 19:40:44;;;;;;;43.40;15.23;;;4.90;99.90;;;;;;4824767;29;20575;-70
2022/11/19 19:43:13;;;;;;;46.43;17.50;;;4.80;99.90;;;;;;4824353;29;20209;-73
2022/11/19 19:45:40;;;;;;;35.30;14.27;;;4.80;99.90;;;;;;4823858;29;20777;-68
2022/11/19 19:48:07;;;;;;;48.50;16.83;;;4.60;99.90;;;;;;4824733;29;20247;-68
2022/11/19 19:50:33;;;;;;;43.33;15.80;;;4.40;99.90;;;;;;4824588;29;20563;-70
2022/11/19 19:53:00;;;;;;;40.73;16.30;;;4.50;99.90;;;;;;4824880;29;20214;-70
2022/11/19 19:55:27;;;;;;;46.73;15.80;;;4.60;99.90;;;;;;4824458;29;20600;-69
2022/11/19 19:57:55;;;;;;;40.50;15.40;;;4.60;99.90;;;;;;4824814;29;20308;-68
2022/11/19 20:00:23;;;;;;;44.47;15.53;;;4.60;99.90;;;;;;4824757;29;20630;-71
2022/11/19 20:02:50;;;;;;;37.37;16.00;;;4.50;99.90;;;;;;4824552;29;20220;-68
2022/11/19 20:05:17;;;;;;;44.87;16.10;;;4.50;99.90;;;;;;4824390;29;20328;-68
2022/11/19 20:07:44;;;;;;;50.10;18.10;;;4.70;99.90;;;;;;4824273;29;20214;-68
2022/11/19 20:10:11;;;;;;;59.43;23.20;;;4.70;99.90;;;;;;4824416;29;20649;-71
2022/11/19 20:15:23;;;;;;;43.13;16.00;;;4.60;99.90;;;;;;4824443;29;20326;-76
2022/11/19 20:17:50;;;;;;;37.63;14.07;;;4.70;99.90;;;;;;4824459;29;20213;-75
2022/11/19 20:20:17;;;;;;;43.47;15.90;;;4.70;99.90;;;;;;4824293;29;20308;-75
2022/11/19 20:22:44;;;;;;;42.13;16.73;;;4.70;99.90;;;;;;4824070;29;20675;-76
2022/11/19 20:25:11;;;;;;;40.20;15.87;;;4.90;99.90;;;;;;4824169;29;20275;-75
2022/11/19 20:27:38;;;;;;;38.73;13.73;;;5.00;99.90;;;;;;4824258;29;20678;-68
2022/11/19 20:30:06;;;;;;;62.23;25.97;;;5.00;99.90;;;;;;4823883;29;20248;-76
2022/11/19 20:32:34;;;;;;;51.07;19.20;;;4.60;99.90;;;;;;4824271;29;20745;-73
2022/11/19 20:35:01;;;;;;;34.10;13.63;;;4.50;99.90;;;;;;4824008;29;20324;-76
2022/11/19 20:37:28;;;;;;;37.13;15.40;;;4.20;99.90;;;;;;4823851;29;20300;-71
2022/11/19 20:39:55;;;;;;;45.30;16.63;;;4.10;99.90;;;;;;4824046;29;20312;-76
2022/11/19 20:45:07;;;;;;;41.83;18.40;;;4.10;99.90;;;;;;4824181;29;20359;-71
2022/11/19 20:47:35;;;;;;;44.17;17.33;;;4.10;99.90;;;;;;4824058;29;20225;-74
2022/11/19 20:50:02;;;;;;;37.03;13.80;;;4.30;99.90;;;;;;4824167;29;20586;-72
2022/11/19 20:52:29;;;;;;;49.77;15.03;;;4.40;99.90;;;;;;4824074;29;20300;-73
2022/11/19 20:54:56;;;;;;;43.53;14.33;;;4.60;99.90;;;;;;4824130;29;20615;-73
2022/11/19 20:57:23;;;;;;;55.47;21.50;;;4.60;99.90;;;;;;4827710;29;20220;-73
2022/11/19 20:59:50;;;;;;;34.03;12.80;;;4.50;99.90;;;;;;4827610;29;20222;-77
2022/11/19 21:02:16;;;;;;;39.33;13.10;;;4.30;99.90;;;;;;4827568;29;20592;-76
2022/11/19 21:04:45;;;;;;;35.23;14.63;;;4.20;99.90;;;;;;4827173;29;20982;-76
2022/11/19 21:07:12;;;;;;;37.40;15.77;;;4.10;99.90;;;;;;4827402;29;20295;-76
2022/11/19 21:09:39;;;;;;;63.60;22.63;;;4.20;99.90;;;;;;4827190;29;20236;-76
2022/11/19 21:12:06;;;;;;;42.30;15.93;;;4.30;99.90;;;;;;4827110;29;20679;-76
2022/11/19 21:14:33;;;;;;;45.23;17.47;;;4.30;99.90;;;;;;4826604;29;20237;-72
2022/11/19 21:17:00;;;;;;;41.40;15.13;;;4.30;99.90;;;;;;4826888;29;20209;-71
2022/11/19 21:19:27;;;;;;;31.77;13.10;;;4.50;99.90;;;;;;4827378;29;20757;-76
2022/11/19 21:21:55;;;;;;;28.33;11.90;;;4.50;99.90;;;;;;4828491;29;20620;-75
2022/11/19 21:24:22;;;;;;;34.83;13.23;;;4.50;99.90;;;;;;4827643;29;20686;-76
2022/11/19 21:26:49;;;;;;;29.77;13.17;;;4.60;99.90;;;;;;4827261;29;20272;-75
2022/11/19 21:29:16;;;;;;;26.07;12.00;;;4.60;99.90;;;;;;4826919;29;20332;-77
2022/11/19 21:31:44;;;;;;;28.07;12.03;;;4.50;99.90;;;;;;4826784;29;20304;-72
2022/11/19 21:34:12;;;;;;;34.10;15.17;;;4.70;99.90;;;;;;4826872;29;20210;-73
2022/11/19 21:36:40;;;;;;;26.73;12.10;;;4.70;99.90;;;;;;4826806;29;20209;-76
2022/11/19 21:39:09;;;;;;;28.70;10.90;;;4.70;99.90;;;;;;4826702;29;20242;-75
2022/11/19 21:41:36;;;;;;;32.17;12.33;;;4.90;99.90;;;;;;4826407;29;20686;-76
2022/11/19 21:44:04;;;;;;;32.40;12.83;;;5.00;99.90;;;;;;4826113;29;20271;-75
2022/11/19 21:46:31;;;;;;;28.13;12.47;;;5.10;99.90;;;;;;4872263;23;20331;-72
2022/11/19 21:48:58;;;;;;;27.17;10.77;;;5.10;99.90;;;;;;4864752;29;20250;-73
2022/11/19 21:51:25;;;;;;;21.67;10.87;;;5.20;99.90;;;;;;4864135;29;20650;-67
2022/11/19 21:53:54;;;;;;;30.57;12.07;;;5.20;99.90;;;;;;4863476;29;20575;-74
2022/11/19 21:56:22;;;;;;;27.80;12.37;;;5.40;99.90;;;;;;4863236;29;20231;-70
2022/11/19 21:58:49;;;;;;;24.63;10.43;;;5.40;99.90;;;;;;4863553;29;20560;-75
2022/11/19 22:01:16;;;;;;;23.70;9.83;;;5.50;99.90;;;;;;4863749;29;20316;-68
2022/11/19 22:03:43;;;;;;;24.13;9.90;;;5.60;99.90;;;;;;4863250;29;20637;-68
2022/11/19 22:06:11;;;;;;;20.83;10.07;;;5.50;99.90;;;;;;4863063;29;20672;-67
2022/11/19 22:08:40;;;;;;;25.93;10.40;;;5.30;99.90;;;;;;4862482;29;20322;-67
2022/11/19 22:13:50;;;;;;;24.10;9.90;;;5.30;99.90;;;;;;4862822;29;20207;-67
2022/11/19 22:16:17;;;;;;;20.73;9.50;;;5.30;99.90;;;;;;4862940;29;20323;-66
2022/11/19 22:18:43;;;;;;;22.83;10.20;;;5.30;99.90;;;;;;4862833;29;20314;-67
2022/11/19 22:21:10;;;;;;;18.63;9.30;;;5.30;99.90;;;;;;4862706;29;20215;-73
2022/11/19 22:23:37;;;;;;;22.07;9.20;;;5.30;99.90;;;;;;4862721;29;20223;-67
2022/11/19 22:26:05;;;;;;;23.60;9.50;;;5.40;99.90;;;;;;4863015;29;20234;-67
2022/11/19 22:28:32;;;;;;;19.83;9.33;;;5.40;99.90;;;;;;4862720;29;20695;-67
2022/11/19 22:31:00;;;;;;;19.87;9.20;;;5.30;99.90;;;;;;4862980;29;20583;-72
2022/11/19 22:33:29;;;;;;;17.03;8.73;;;5.00;99.90;;;;;;4862633;29;20212;-73
2022/11/19 22:35:58;;;;;;;19.80;8.23;;;5.20;99.90;;;;;;4855081;29;21649;-74
